sensor_id;sensor_type;location;lat;lon;timestamp;temperature;humidity
49765;DHT22;35657;51.204;-4.130;2023-07-08T00:00:21;20.40;99.90
49765;DHT22;35657;51.204;-4.130;2023-07-08T00:02:47;20.50;99.90
49765;DHT22;35657;51.204;-4.130;2023-07-08T00:05:15;20.50;99.90
49765;DHT22;35657;51.204;-4.130;2023-07-08T00:07:42;20.50;99.90
49765;DHT22;35657;51.204;-4.130;2023-07-08T00:10:19;20.70;99.90
49765;DHT22;35657;51.204;-4.130;2023-07-08T00:12:48;20.70;99.90
49765;DHT22;35657;51.204;-4.130;2023-07-08T00:15:14;20.70;99.90
49765;DHT22;35657;51.204;-4.130;2023-07-08T00:17:40;20.70;99.90
49765;DHT22;35657;51.204;-4.130;2023-07-08T00:20:42;20.60;99.90
49765;DHT22;35657;51.204;-4.130;2023-07-08T00:23:09;20.50;99.90
49765;DHT22;35657;51.204;-4.130;2023-07-08T00:25:35;20.50;99.90
49765;DHT22;35657;51.204;-4.130;2023-07-08T00:28:01;20.50;99.90
49765;DHT22;35657;51.204;-4.130;2023-07-08T00:30:29;20.50;99.90
49765;DHT22;35657;51.204;-4.130;2023-07-08T00:32:56;20.50;99.90
49765;DHT22;35657;51.204;-4.130;2023-07-08T00:37:53;20.50;99.90
49765;DHT22;35657;51.204;-4.130;2023-07-08T00:40:28;20.50;99.90
49765;DHT22;35657;51.204;-4.130;2023-07-08T00:42:54;20.50;99.90
49765;DHT22;35657;51.204;-4.130;2023-07-08T00:45:41;20.50;99.90
49765;DHT22;35657;51.204;-4.130;2023-07-08T00:48:15;20.40;99.90
49765;DHT22;35657;51.204;-4.130;2023-07-08T00:50:42;20.40;99.90
49765;DHT22;35657;51.204;-4.130;2023-07-08T00:53:33;20.40;99.90
49765;DHT22;35657;51.204;-4.130;2023-07-08T00:58:44;20.40;99.90
49765;DHT22;35657;51.204;-4.130;2023-07-08T01:01:11;20.40;99.90
49765;DHT22;35657;51.204;-4.130;2023-07-08T01:04:11;20.40;99.90
49765;DHT22;35657;51.204;-4.130;2023-07-08T01:06:38;20.40;99.90
49765;DHT22;35657;51.204;-4.130;2023-07-08T01:09:06;20.40;99.90
49765;DHT22;35657;51.204;-4.130;2023-07-08T01:11:34;20.40;99.90
49765;DHT22;35657;51.204;-4.130;2023-07-08T01:14:04;20.50;99.90
49765;DHT22;35657;51.204;-4.130;2023-07-08T01:16:30;20.40;99.90
49765;DHT22;35657;51.204;-4.130;2023-07-08T01:19:00;20.50;99.90
49765;DHT22;35657;51.204;-4.130;2023-07-08T01:21:35;20.50;99.90
49765;DHT22;35657;51.204;-4.130;2023-07-08T01:24:04;20.50;99.90
49765;DHT22;35657;51.204;-4.130;2023-07-08T01:26:33;20.40;99.90
49765;DHT22;35657;51.204;-4.130;2023-07-08T01:29:01;20.20;99.90
49765;DHT22;35657;51.204;-4.130;2023-07-08T01:31:28;20.20;99.90
49765;DHT22;35657;51.204;-4.130;2023-07-08T01:33:54;20.20;99.90
49765;DHT22;35657;51.204;-4.130;2023-07-08T01:36:20;20.10;99.90
49765;DHT22;35657;51.204;-4.130;2023-07-08T01:38:47;20.10;99.90
49765;DHT22;35657;51.204;-4.130;2023-07-08T01:41:14;20.10;99.90
49765;DHT22;35657;51.204;-4.130;2023-07-08T01:43:40;20.10;99.90
49765;DHT22;35657;51.204;-4.130;2023-07-08T01:46:14;20.10;99.90
49765;DHT22;35657;51.204;-4.130;2023-07-08T01:48:45;20.10;99.90
49765;DHT22;35657;51.204;-4.130;2023-07-08T01:51:12;20.00;99.90
49765;DHT22;35657;51.204;-4.130;2023-07-08T01:53:41;20.00;99.90
49765;DHT22;35657;51.204;-4.130;2023-07-08T01:56:08;20.00;99.90
49765;DHT22;35657;51.204;-4.130;2023-07-08T01:58:34;20.00;99.90
49765;DHT22;35657;51.204;-4.130;2023-07-08T02:01:00;20.00;99.90
49765;DHT22;35657;51.204;-4.130;2023-07-08T02:03:26;20.00;99.90
49765;DHT22;35657;51.204;-4.130;2023-07-08T02:05:52;20.00;99.90
49765;DHT22;35657;51.204;-4.130;2023-07-08T02:08:19;20.00;99.90
49765;DHT22;35657;51.204;-4.130;2023-07-08T02:10:51;20.10;99.90
49765;DHT22;35657;51.204;-4.130;2023-07-08T02:13:17;20.10;99.90
49765;DHT22;35657;51.204;-4.130;2023-07-08T02:15:43;20.10;99.90
49765;DHT22;35657;51.204;-4.130;2023-07-08T02:18:09;20.10;99.90
49765;DHT22;35657;51.204;-4.130;2023-07-08T02:20:34;20.00;99.90
49765;DHT22;35657;51.204;-4.130;2023-07-08T02:23:00;20.10;99.90
49765;DHT22;35657;51.204;-4.130;2023-07-08T02:25:26;20.10;99.90
49765;DHT22;35657;51.204;-4.130;2023-07-08T02:27:52;20.10;99.90
49765;DHT22;35657;51.204;-4.130;2023-07-08T02:30:23;20.00;99.90
49765;DHT22;35657;51.204;-4.130;2023-07-08T02:32:48;20.00;99.90
49765;DHT22;35657;51.204;-4.130;2023-07-08T02:35:23;19.90;99.90
49765;DHT22;35657;51.204;-4.130;2023-07-08T02:37:50;19.90;99.90
49765;DHT22;35657;51.204;-4.130;2023-07-08T02:40:15;19.90;99.90
49765;DHT22;35657;51.204;-4.130;2023-07-08T02:42:41;19.80;99.90
49765;DHT22;35657;51.204;-4.130;2023-07-08T02:45:07;19.80;99.90
49765;DHT22;35657;51.204;-4.130;2023-07-08T02:47:33;19.80;99.90
49765;DHT22;35657;51.204;-4.130;2023-07-08T02:49:59;19.80;99.90
49765;DHT22;35657;51.204;-4.130;2023-07-08T02:52:24;19.80;99.90
49765;DHT22;35657;51.204;-4.130;2023-07-08T02:54:50;19.80;99.90
49765;DHT22;35657;51.204;-4.130;2023-07-08T02:57:16;19.80;99.90
49765;DHT22;35657;51.204;-4.130;2023-07-08T02:59:41;19.70;99.90
49765;DHT22;35657;51.204;-4.130;2023-07-08T03:02:07;19.70;99.90
49765;DHT22;35657;51.204;-4.130;2023-07-08T03:04:33;19.70;99.90
49765;DHT22;35657;51.204;-4.130;2023-07-08T03:07:00;19.70;99.90
49765;DHT22;35657;51.204;-4.130;2023-07-08T03:09:26;19.80;99.90
49765;DHT22;35657;51.204;-4.130;2023-07-08T03:11:52;19.80;99.90
49765;DHT22;35657;51.204;-4.130;2023-07-08T03:14:18;19.80;99.90
49765;DHT22;35657;51.204;-4.130;2023-07-08T03:16:44;19.80;99.90
49765;DHT22;35657;51.204;-4.130;2023-07-08T03:19:11;19.90;99.90
49765;DHT22;35657;51.204;-4.130;2023-07-08T03:21:40;19.90;99.90
49765;DHT22;35657;51.204;-4.130;2023-07-08T03:24:09;19.90;99.90
49765;DHT22;35657;51.204;-4.130;2023-07-08T03:26:36;19.90;99.90
49765;DHT22;35657;51.204;-4.130;2023-07-08T03:29:02;19.90;99.90
49765;DHT22;35657;51.204;-4.130;2023-07-08T03:31:28;19.80;99.90
49765;DHT22;35657;51.204;-4.130;2023-07-08T03:33:54;19.80;99.90
49765;DHT22;35657;51.204;-4.130;2023-07-08T03:36:20;19.80;99.90
49765;DHT22;35657;51.204;-4.130;2023-07-08T03:38:53;19.80;99.90
49765;DHT22;35657;51.204;-4.130;2023-07-08T03:41:19;19.80;99.90
49765;DHT22;35657;51.204;-4.130;2023-07-08T03:43:45;19.70;99.90
49765;DHT22;35657;51.204;-4.130;2023-07-08T03:46:12;19.70;99.90
49765;DHT22;35657;51.204;-4.130;2023-07-08T03:48:38;19.70;99.90
49765;DHT22;35657;51.204;-4.130;2023-07-08T03:51:08;19.70;99.90
49765;DHT22;35657;51.204;-4.130;2023-07-08T03:53:35;19.80;99.90
49765;DHT22;35657;51.204;-4.130;2023-07-08T03:56:01;19.80;99.90
49765;DHT22;35657;51.204;-4.130;2023-07-08T03:58:26;19.80;99.90
49765;DHT22;35657;51.204;-4.130;2023-07-08T04:00:52;19.80;99.90
49765;DHT22;35657;51.204;-4.130;2023-07-08T04:03:18;19.80;99.90
49765;DHT22;35657;51.204;-4.130;2023-07-08T04:05:44;19.80;99.90
49765;DHT22;35657;51.204;-4.130;2023-07-08T04:08:10;19.70;99.90
49765;DHT22;35657;51.204;-4.130;2023-07-08T04:10:35;19.90;99.90
49765;DHT22;35657;51.204;-4.130;2023-07-08T04:13:01;19.90;99.90
49765;DHT22;35657;51.204;-4.130;2023-07-08T04:15:27;20.00;99.90
49765;DHT22;35657;51.204;-4.130;2023-07-08T04:17:54;20.00;99.90
49765;DHT22;35657;51.204;-4.130;2023-07-08T04:20:21;20.00;99.90
49765;DHT22;35657;51.204;-4.130;2023-07-08T04:22:47;20.00;99.90
49765;DHT22;35657;51.204;-4.130;2023-07-08T04:25:13;20.10;99.90
49765;DHT22;35657;51.204;-4.130;2023-07-08T04:27:40;20.10;99.90
49765;DHT22;35657;51.204;-4.130;2023-07-08T04:30:06;20.00;99.90
49765;DHT22;35657;51.204;-4.130;2023-07-08T04:32:32;20.00;99.90
49765;DHT22;35657;51.204;-4.130;2023-07-08T04:34:58;19.90;99.90
49765;DHT22;35657;51.204;-4.130;2023-07-08T04:37:24;19.90;99.90
49765;DHT22;35657;51.204;-4.130;2023-07-08T04:39:49;19.90;99.90
49765;DHT22;35657;51.204;-4.130;2023-07-08T04:42:15;19.90;99.90
49765;DHT22;35657;51.204;-4.130;2023-07-08T04:44:43;19.90;99.90
49765;DHT22;35657;51.204;-4.130;2023-07-08T04:47:09;19.90;99.90
49765;DHT22;35657;51.204;-4.130;2023-07-08T04:49:39;19.90;99.90
49765;DHT22;35657;51.204;-4.130;2023-07-08T04:52:06;19.90;99.90
49765;DHT22;35657;51.204;-4.130;2023-07-08T04:54:32;19.90;99.90
49765;DHT22;35657;51.204;-4.130;2023-07-08T04:56:57;19.90;99.90
49765;DHT22;35657;51.204;-4.130;2023-07-08T04:59:25;19.90;99.90
49765;DHT22;35657;51.204;-4.130;2023-07-08T05:01:51;19.90;99.90
49765;DHT22;35657;51.204;-4.130;2023-07-08T05:04:19;19.90;99.90
49765;DHT22;35657;51.204;-4.130;2023-07-08T05:06:45;19.90;99.90
49765;DHT22;35657;51.204;-4.130;2023-07-08T05:09:11;19.90;99.90
49765;DHT22;35657;51.204;-4.130;2023-07-08T05:11:37;19.90;99.90
49765;DHT22;35657;51.204;-4.130;2023-07-08T05:14:03;20.00;99.90
49765;DHT22;35657;51.204;-4.130;2023-07-08T05:16:32;20.10;99.90
49765;DHT22;35657;51.204;-4.130;2023-07-08T05:18:58;20.10;99.90
49765;DHT22;35657;51.204;-4.130;2023-07-08T05:21:24;20.10;99.90
49765;DHT22;35657;51.204;-4.130;2023-07-08T05:23:50;20.10;99.90
49765;DHT22;35657;51.204;-4.130;2023-07-08T05:26:16;20.10;99.90
49765;DHT22;35657;51.204;-4.130;2023-07-08T05:28:42;20.20;99.90
49765;DHT22;35657;51.204;-4.130;2023-07-08T05:31:07;20.20;99.90
49765;DHT22;35657;51.204;-4.130;2023-07-08T05:33:33;20.20;99.90
49765;DHT22;35657;51.204;-4.130;2023-07-08T05:35:59;20.10;99.90
49765;DHT22;35657;51.204;-4.130;2023-07-08T05:38:26;20.20;99.90
49765;DHT22;35657;51.204;-4.130;2023-07-08T05:40:56;20.10;99.90
49765;DHT22;35657;51.204;-4.130;2023-07-08T05:43:22;20.10;99.90
49765;DHT22;35657;51.204;-4.130;2023-07-08T05:45:48;20.10;99.90
49765;DHT22;35657;51.204;-4.130;2023-07-08T05:48:14;20.10;99.90
49765;DHT22;35657;51.204;-4.130;2023-07-08T05:50:40;20.10;99.90
49765;DHT22;35657;51.204;-4.130;2023-07-08T05:53:09;20.00;99.90
49765;DHT22;35657;51.204;-4.130;2023-07-08T05:55:36;20.00;99.90
49765;DHT22;35657;51.204;-4.130;2023-07-08T05:58:02;20.10;99.90
49765;DHT22;35657;51.204;-4.130;2023-07-08T06:00:28;20.00;99.90
49765;DHT22;35657;51.204;-4.130;2023-07-08T06:02:53;20.00;99.90
49765;DHT22;35657;51.204;-4.130;2023-07-08T06:05:19;20.10;99.90
49765;DHT22;35657;51.204;-4.130;2023-07-08T06:07:45;20.10;99.90
49765;DHT22;35657;51.204;-4.130;2023-07-08T06:10:11;20.10;99.90
49765;DHT22;35657;51.204;-4.130;2023-07-08T06:12:36;20.10;99.90
49765;DHT22;35657;51.204;-4.130;2023-07-08T06:15:02;20.10;99.90
49765;DHT22;35657;51.204;-4.130;2023-07-08T06:17:28;20.10;99.90
49765;DHT22;35657;51.204;-4.130;2023-07-08T06:19:54;20.20;99.90
49765;DHT22;35657;51.204;-4.130;2023-07-08T06:22:19;20.30;99.90
49765;DHT22;35657;51.204;-4.130;2023-07-08T06:24:45;20.30;99.90
49765;DHT22;35657;51.204;-4.130;2023-07-08T06:27:13;20.30;99.90
49765;DHT22;35657;51.204;-4.130;2023-07-08T06:29:38;20.40;99.90
49765;DHT22;35657;51.204;-4.130;2023-07-08T06:32:05;20.40;99.90
49765;DHT22;35657;51.204;-4.130;2023-07-08T06:34:31;20.40;99.90
49765;DHT22;35657;51.204;-4.130;2023-07-08T06:36:57;20.50;99.90
49765;DHT22;35657;51.204;-4.130;2023-07-08T06:39:23;20.40;99.90
49765;DHT22;35657;51.204;-4.130;2023-07-08T06:41:48;20.30;99.90
49765;DHT22;35657;51.204;-4.130;2023-07-08T06:44:14;20.30;99.90
49765;DHT22;35657;51.204;-4.130;2023-07-08T06:46:41;20.30;99.90
49765;DHT22;35657;51.204;-4.130;2023-07-08T06:49:07;20.30;99.90
49765;DHT22;35657;51.204;-4.130;2023-07-08T06:51:35;20.30;99.90
49765;DHT22;35657;51.204;-4.130;2023-07-08T06:54:00;20.40;99.90
49765;DHT22;35657;51.204;-4.130;2023-07-08T06:56:30;20.30;99.90
49765;DHT22;35657;51.204;-4.130;2023-07-08T06:58:56;20.40;99.90
49765;DHT22;35657;51.204;-4.130;2023-07-08T07:01:22;20.40;99.90
49765;DHT22;35657;51.204;-4.130;2023-07-08T07:03:48;20.40;99.90
49765;DHT22;35657;51.204;-4.130;2023-07-08T07:06:13;20.40;99.90
49765;DHT22;35657;51.204;-4.130;2023-07-08T07:08:39;20.40;99.90
49765;DHT22;35657;51.204;-4.130;2023-07-08T07:11:06;20.50;99.90
49765;DHT22;35657;51.204;-4.130;2023-07-08T07:13:31;20.50;99.90
49765;DHT22;35657;51.204;-4.130;2023-07-08T07:15:58;20.50;99.90
49765;DHT22;35657;51.204;-4.130;2023-07-08T07:18:24;20.60;99.90
49765;DHT22;35657;51.204;-4.130;2023-07-08T07:20:52;20.70;99.90
49765;DHT22;35657;51.204;-4.130;2023-07-08T07:23:18;20.80;99.90
49765;DHT22;35657;51.204;-4.130;2023-07-08T07:25:45;20.80;99.90
49765;DHT22;35657;51.204;-4.130;2023-07-08T07:28:13;20.80;99.90
49765;DHT22;35657;51.204;-4.130;2023-07-08T07:30:39;20.80;99.90
49765;DHT22;35657;51.204;-4.130;2023-07-08T07:33:05;20.90;99.90
49765;DHT22;35657;51.204;-4.130;2023-07-08T07:35:31;20.90;99.90
49765;DHT22;35657;51.204;-4.130;2023-07-08T07:37:56;20.90;99.90
49765;DHT22;35657;51.204;-4.130;2023-07-08T07:40:22;20.90;99.90
49765;DHT22;35657;51.204;-4.130;2023-07-08T07:42:48;20.90;99.90
49765;DHT22;35657;51.204;-4.130;2023-07-08T07:45:14;20.90;99.90
49765;DHT22;35657;51.204;-4.130;2023-07-08T07:47:40;20.80;99.90
49765;DHT22;35657;51.204;-4.130;2023-07-08T07:50:07;20.80;99.90
49765;DHT22;35657;51.204;-4.130;2023-07-08T07:52:34;20.70;99.90
49765;DHT22;35657;51.204;-4.130;2023-07-08T07:55:00;20.70;99.90
49765;DHT22;35657;51.204;-4.130;2023-07-08T07:57:25;20.60;99.90
49765;DHT22;35657;51.204;-4.130;2023-07-08T07:59:51;20.50;99.90
49765;DHT22;35657;51.204;-4.130;2023-07-08T08:02:17;20.50;99.90
49765;DHT22;35657;51.204;-4.130;2023-07-08T08:04:43;20.40;99.90
49765;DHT22;35657;51.204;-4.130;2023-07-08T08:07:09;20.40;99.90
49765;DHT22;35657;51.204;-4.130;2023-07-08T08:09:36;20.30;99.90
49765;DHT22;35657;51.204;-4.130;2023-07-08T08:12:03;20.30;99.90
49765;DHT22;35657;51.204;-4.130;2023-07-08T08:14:28;20.20;99.90
49765;DHT22;35657;51.204;-4.130;2023-07-08T08:16:54;20.20;99.90
49765;DHT22;35657;51.204;-4.130;2023-07-08T08:19:20;20.30;99.90
49765;DHT22;35657;51.204;-4.130;2023-07-08T08:21:46;20.40;99.90
49765;DHT22;35657;51.204;-4.130;2023-07-08T08:24:11;20.40;99.90
49765;DHT22;35657;51.204;-4.130;2023-07-08T08:26:37;20.40;99.90
49765;DHT22;35657;51.204;-4.130;2023-07-08T08:29:03;20.40;99.90
49765;DHT22;35657;51.204;-4.130;2023-07-08T08:31:29;20.30;99.90
49765;DHT22;35657;51.204;-4.130;2023-07-08T08:33:56;20.40;99.90
49765;DHT22;35657;51.204;-4.130;2023-07-08T08:36:22;20.50;99.90
49765;DHT22;35657;51.204;-4.130;2023-07-08T08:38:48;20.50;99.90
49765;DHT22;35657;51.204;-4.130;2023-07-08T08:41:18;20.50;99.90
49765;DHT22;35657;51.204;-4.130;2023-07-08T08:43:45;20.40;99.90
49765;DHT22;35657;51.204;-4.130;2023-07-08T08:49:05;20.40;99.90
49765;DHT22;35657;51.204;-4.130;2023-07-08T08:51:34;20.30;99.90
49765;DHT22;35657;51.204;-4.130;2023-07-08T08:54:00;20.30;99.90
49765;DHT22;35657;51.204;-4.130;2023-07-08T08:56:31;20.30;99.90
49765;DHT22;35657;51.204;-4.130;2023-07-08T08:59:16;20.30;99.90
49765;DHT22;35657;51.204;-4.130;2023-07-08T09:01:45;20.40;99.90
49765;DHT22;35657;51.204;-4.130;2023-07-08T09:04:20;20.40;99.90
49765;DHT22;35657;51.204;-4.130;2023-07-08T09:06:46;20.50;99.90
49765;DHT22;35657;51.204;-4.130;2023-07-08T09:09:18;20.60;99.90
49765;DHT22;35657;51.204;-4.130;2023-07-08T09:12:06;20.80;99.90
49765;DHT22;35657;51.204;-4.130;2023-07-08T09:14:37;20.90;99.90
49765;DHT22;35657;51.204;-4.130;2023-07-08T09:17:24;20.80;99.90
49765;DHT22;35657;51.204;-4.130;2023-07-08T09:25:43;21.00;99.90
49765;DHT22;35657;51.204;-4.130;2023-07-08T09:28:13;21.10;99.90
49765;DHT22;35657;51.204;-4.130;2023-07-08T09:30:40;21.30;99.90
49765;DHT22;35657;51.204;-4.130;2023-07-08T09:33:08;21.40;99.90
49765;DHT22;35657;51.204;-4.130;2023-07-08T09:35:43;21.40;99.90
49765;DHT22;35657;51.204;-4.130;2023-07-08T09:38:13;21.60;99.90
49765;DHT22;35657;51.204;-4.130;2023-07-08T09:40:47;21.70;99.90
49765;DHT22;35657;51.204;-4.130;2023-07-08T09:43:37;21.70;99.90
49765;DHT22;35657;51.204;-4.130;2023-07-08T09:46:02;21.90;99.90
49765;DHT22;35657;51.204;-4.130;2023-07-08T09:48:33;21.90;99.90
49765;DHT22;35657;51.204;-4.130;2023-07-08T09:50:59;21.90;99.90
49765;DHT22;35657;51.204;-4.130;2023-07-08T09:53:26;21.80;99.90
49765;DHT22;35657;51.204;-4.130;2023-07-08T09:55:53;21.80;99.90
49765;DHT22;35657;51.204;-4.130;2023-07-08T09:58:25;21.90;99.90
49765;DHT22;35657;51.204;-4.130;2023-07-08T10:00:59;21.90;99.90
49765;DHT22;35657;51.204;-4.130;2023-07-08T10:03:31;21.70;99.90
49765;DHT22;35657;51.204;-4.130;2023-07-08T10:06:05;21.70;99.90
49765;DHT22;35657;51.204;-4.130;2023-07-08T10:08:39;22.00;99.90
49765;DHT22;35657;51.204;-4.130;2023-07-08T10:13:49;21.80;99.90
49765;DHT22;35657;51.204;-4.130;2023-07-08T10:16:30;21.80;99.90
49765;DHT22;35657;51.204;-4.130;2023-07-08T10:18:57;21.70;99.90
49765;DHT22;35657;51.204;-4.130;2023-07-08T10:35:16;22.80;99.90
49765;DHT22;35657;51.204;-4.130;2023-07-08T10:40:34;22.80;99.90
49765;DHT22;35657;51.204;-4.130;2023-07-08T10:43:10;22.90;99.90
49765;DHT22;35657;51.204;-4.130;2023-07-08T10:48:45;22.90;99.90
49765;DHT22;35657;51.204;-4.130;2023-07-08T10:51:29;22.90;99.90
49765;DHT22;35657;51.204;-4.130;2023-07-08T10:56:37;22.90;99.90
49765;DHT22;35657;51.204;-4.130;2023-07-08T10:59:19;22.80;99.90
49765;DHT22;35657;51.204;-4.130;2023-07-08T11:02:18;22.60;99.90
49765;DHT22;35657;51.204;-4.130;2023-07-08T11:04:50;22.60;99.90
49765;DHT22;35657;51.204;-4.130;2023-07-08T11:07:43;22.60;99.90
49765;DHT22;35657;51.204;-4.130;2023-07-08T11:10:20;22.50;99.90
49765;DHT22;35657;51.204;-4.130;2023-07-08T11:12:51;22.50;99.90
49765;DHT22;35657;51.204;-4.130;2023-07-08T11:15:28;22.60;99.90
49765;DHT22;35657;51.204;-4.130;2023-07-08T11:18:03;22.50;99.90
49765;DHT22;35657;51.204;-4.130;2023-07-08T11:20:48;22.40;99.90
49765;DHT22;35657;51.204;-4.130;2023-07-08T11:29:00;22.40;99.90
49765;DHT22;35657;51.204;-4.130;2023-07-08T11:31:31;22.70;99.90
49765;DHT22;35657;51.204;-4.130;2023-07-08T11:33:59;22.80;99.90
49765;DHT22;35657;51.204;-4.130;2023-07-08T11:36:27;22.90;99.90
49765;DHT22;35657;51.204;-4.130;2023-07-08T11:38:55;22.70;99.90
49765;DHT22;35657;51.204;-4.130;2023-07-08T11:41:25;22.70;99.90
49765;DHT22;35657;51.204;-4.130;2023-07-08T11:43:53;22.80;99.90
49765;DHT22;35657;51.204;-4.130;2023-07-08T11:46:30;22.90;99.90
49765;DHT22;35657;51.204;-4.130;2023-07-08T11:49:12;22.90;99.90
49765;DHT22;35657;51.204;-4.130;2023-07-08T11:51:41;22.90;99.90
49765;DHT22;35657;51.204;-4.130;2023-07-08T11:54:29;22.80;99.90
49765;DHT22;35657;51.204;-4.130;2023-07-08T11:57:06;22.60;99.90
49765;DHT22;35657;51.204;-4.130;2023-07-08T11:59:39;22.40;99.90
49765;DHT22;35657;51.204;-4.130;2023-07-08T12:02:19;22.50;99.90
49765;DHT22;35657;51.204;-4.130;2023-07-08T12:05:13;22.80;99.90
49765;DHT22;35657;51.204;-4.130;2023-07-08T12:07:47;22.80;99.90
49765;DHT22;35657;51.204;-4.130;2023-07-08T12:10:18;22.70;99.90
49765;DHT22;35657;51.204;-4.130;2023-07-08T12:12:46;22.70;99.90
49765;DHT22;35657;51.204;-4.130;2023-07-08T12:15:24;22.60;99.90
49765;DHT22;35657;51.204;-4.130;2023-07-08T12:17:52;22.60;99.90
49765;DHT22;35657;51.204;-4.130;2023-07-08T12:20:30;22.60;99.90
49765;DHT22;35657;51.204;-4.130;2023-07-08T12:22:56;22.40;99.90
49765;DHT22;35657;51.204;-4.130;2023-07-08T12:25:26;22.40;99.90
49765;DHT22;35657;51.204;-4.130;2023-07-08T12:27:51;22.50;99.90
49765;DHT22;35657;51.204;-4.130;2023-07-08T12:30:17;22.70;99.90
49765;DHT22;35657;51.204;-4.130;2023-07-08T12:32:44;22.80;99.90
49765;DHT22;35657;51.204;-4.130;2023-07-08T12:35:22;22.70;99.90
49765;DHT22;35657;51.204;-4.130;2023-07-08T12:37:50;22.70;99.90
49765;DHT22;35657;51.204;-4.130;2023-07-08T12:40:16;22.70;99.90
49765;DHT22;35657;51.204;-4.130;2023-07-08T12:42:41;22.70;99.90
49765;DHT22;35657;51.204;-4.130;2023-07-08T12:45:16;22.70;99.90
49765;DHT22;35657;51.204;-4.130;2023-07-08T12:47:44;22.60;99.90
49765;DHT22;35657;51.204;-4.130;2023-07-08T12:50:11;22.60;99.90
49765;DHT22;35657;51.204;-4.130;2023-07-08T12:52:38;22.60;99.90
49765;DHT22;35657;51.204;-4.130;2023-07-08T12:55:05;22.50;99.90
49765;DHT22;35657;51.204;-4.130;2023-07-08T12:57:34;22.50;99.90
49765;DHT22;35657;51.204;-4.130;2023-07-08T13:00:00;22.40;99.90
49765;DHT22;35657;51.204;-4.130;2023-07-08T13:02:28;22.30;99.90
49765;DHT22;35657;51.204;-4.130;2023-07-08T13:04:59;22.40;99.90
49765;DHT22;35657;51.204;-4.130;2023-07-08T13:07:35;22.40;99.90
49765;DHT22;35657;51.204;-4.130;2023-07-08T13:10:06;22.40;99.90
49765;DHT22;35657;51.204;-4.130;2023-07-08T13:12:34;22.20;99.90
49765;DHT22;35657;51.204;-4.130;2023-07-08T13:15:05;22.10;99.90
49765;DHT22;35657;51.204;-4.130;2023-07-08T13:17:34;22.00;99.90
49765;DHT22;35657;51.204;-4.130;2023-07-08T13:20:03;21.70;99.90
49765;DHT22;35657;51.204;-4.130;2023-07-08T13:22:29;21.50;99.90
49765;DHT22;35657;51.204;-4.130;2023-07-08T13:25:01;21.30;99.90
49765;DHT22;35657;51.204;-4.130;2023-07-08T13:27:27;21.30;99.90
49765;DHT22;35657;51.204;-4.130;2023-07-08T13:30:18;21.20;99.90
49765;DHT22;35657;51.204;-4.130;2023-07-08T13:32:45;21.30;99.90
49765;DHT22;35657;51.204;-4.130;2023-07-08T13:35:28;21.50;99.90
49765;DHT22;35657;51.204;-4.130;2023-07-08T13:37:59;21.40;99.90
49765;DHT22;35657;51.204;-4.130;2023-07-08T13:40:27;21.40;99.90
49765;DHT22;35657;51.204;-4.130;2023-07-08T13:42:53;21.40;99.90
49765;DHT22;35657;51.204;-4.130;2023-07-08T13:48:12;21.20;99.90
49765;DHT22;35657;51.204;-4.130;2023-07-08T13:54:13;21.30;99.90
49765;DHT22;35657;51.204;-4.130;2023-07-08T13:56:19;21.40;99.90
49765;DHT22;35657;51.204;-4.130;2023-07-08T13:58:48;21.40;99.90
49765;DHT22;35657;51.204;-4.130;2023-07-08T14:01:24;21.30;99.90
49765;DHT22;35657;51.204;-4.130;2023-07-08T14:03:52;21.30;99.90
49765;DHT22;35657;51.204;-4.130;2023-07-08T14:06:21;21.30;99.90
49765;DHT22;35657;51.204;-4.130;2023-07-08T14:08:48;21.30;99.90
49765;DHT22;35657;51.204;-4.130;2023-07-08T14:11:14;21.40;99.90
49765;DHT22;35657;51.204;-4.130;2023-07-08T14:13:40;21.30;99.90
49765;DHT22;35657;51.204;-4.130;2023-07-08T14:16:22;21.40;99.90
49765;DHT22;35657;51.204;-4.130;2023-07-08T14:18:49;21.40;99.90
49765;DHT22;35657;51.204;-4.130;2023-07-08T14:21:15;21.40;99.90
49765;DHT22;35657;51.204;-4.130;2023-07-08T14:23:43;21.30;99.90
49765;DHT22;35657;51.204;-4.130;2023-07-08T14:26:12;21.10;99.90
49765;DHT22;35657;51.204;-4.130;2023-07-08T14:28:38;20.90;99.90
49765;DHT22;35657;51.204;-4.130;2023-07-08T14:31:12;21.10;99.90
49765;DHT22;35657;51.204;-4.130;2023-07-08T14:33:40;21.00;99.90
49765;DHT22;35657;51.204;-4.130;2023-07-08T14:36:12;21.10;99.90
49765;DHT22;35657;51.204;-4.130;2023-07-08T14:38:40;21.40;99.90
49765;DHT22;35657;51.204;-4.130;2023-07-08T14:41:05;21.40;99.90
49765;DHT22;35657;51.204;-4.130;2023-07-08T14:43:33;21.30;99.90
49765;DHT22;35657;51.204;-4.130;2023-07-08T14:46:01;21.20;99.90
49765;DHT22;35657;51.204;-4.130;2023-07-08T14:48:29;21.00;99.90
49765;DHT22;35657;51.204;-4.130;2023-07-08T14:50:55;21.10;99.90
49765;DHT22;35657;51.204;-4.130;2023-07-08T14:53:21;21.00;99.90
49765;DHT22;35657;51.204;-4.130;2023-07-08T14:55:49;21.30;99.90
49765;DHT22;35657;51.204;-4.130;2023-07-08T14:58:29;21.60;99.90
49765;DHT22;35657;51.204;-4.130;2023-07-08T15:00:59;21.60;99.90
49765;DHT22;35657;51.204;-4.130;2023-07-08T15:03:26;21.60;99.90
49765;DHT22;35657;51.204;-4.130;2023-07-08T15:05:52;21.60;99.90
49765;DHT22;35657;51.204;-4.130;2023-07-08T15:08:17;21.50;99.90
49765;DHT22;35657;51.204;-4.130;2023-07-08T15:10:51;21.20;99.90
49765;DHT22;35657;51.204;-4.130;2023-07-08T15:13:23;21.30;99.90
49765;DHT22;35657;51.204;-4.130;2023-07-08T15:15:53;21.40;99.90
49765;DHT22;35657;51.204;-4.130;2023-07-08T15:18:19;21.40;99.90
49765;DHT22;35657;51.204;-4.130;2023-07-08T15:20:47;21.50;99.90
49765;DHT22;35657;51.204;-4.130;2023-07-08T15:23:13;21.40;99.90
49765;DHT22;35657;51.204;-4.130;2023-07-08T15:25:43;21.40;99.90
49765;DHT22;35657;51.204;-4.130;2023-07-08T15:28:43;21.20;99.90
49765;DHT22;35657;51.204;-4.130;2023-07-08T15:31:18;21.30;99.90
49765;DHT22;35657;51.204;-4.130;2023-07-08T15:33:45;21.20;99.90
49765;DHT22;35657;51.204;-4.130;2023-07-08T15:36:12;21.00;99.90
49765;DHT22;35657;51.204;-4.130;2023-07-08T15:38:42;20.90;99.90
49765;DHT22;35657;51.204;-4.130;2023-07-08T15:41:26;21.30;99.90
49765;DHT22;35657;51.204;-4.130;2023-07-08T15:43:53;21.40;99.90
49765;DHT22;35657;51.204;-4.130;2023-07-08T15:46:20;21.70;99.90
49765;DHT22;35657;51.204;-4.130;2023-07-08T15:48:47;22.20;99.90
49765;DHT22;35657;51.204;-4.130;2023-07-08T15:51:16;22.00;99.90
49765;DHT22;35657;51.204;-4.130;2023-07-08T15:53:44;22.20;99.90
49765;DHT22;35657;51.204;-4.130;2023-07-08T15:56:14;22.20;99.90
49765;DHT22;35657;51.204;-4.130;2023-07-08T15:58:42;22.40;99.90
49765;DHT22;35657;51.204;-4.130;2023-07-08T16:01:17;22.20;99.90
49765;DHT22;35657;51.204;-4.130;2023-07-08T16:03:43;22.40;99.90
49765;DHT22;35657;51.204;-4.130;2023-07-08T16:06:09;22.50;99.90
49765;DHT22;35657;51.204;-4.130;2023-07-08T16:08:35;22.20;99.90
49765;DHT22;35657;51.204;-4.130;2023-07-08T16:11:05;22.30;99.90
49765;DHT22;35657;51.204;-4.130;2023-07-08T16:13:36;22.30;99.90
49765;DHT22;35657;51.204;-4.130;2023-07-08T16:16:02;22.40;99.90